createdAt,value
2022-11-14T00:01:57.254Z,10.27
2022-11-14T00:04:46.526Z,10.93
2022-11-14T00:07:33.038Z,10.47
2022-11-14T00:10:18.810Z,9.57
2022-11-14T00:13:04.005Z,9.37
2022-11-14T00:15:51.108Z,9.13
2022-11-14T00:18:36.466Z,9.30
2022-11-14T00:21:21.942Z,9.40
2022-11-14T00:24:07.425Z,9.43
2022-11-14T00:26:52.743Z,9.20
2022-11-14T00:29:38.668Z,10.47
2022-11-14T00:32:23.842Z,9.63
2022-11-14T00:35:09.616Z,9.10
2022-11-14T00:37:55.040Z,9.20
2022-11-14T00:40:40.284Z,10.47
2022-11-14T00:43:25.500Z,10.30
2022-11-14T00:46:10.797Z,11.83
2022-11-14T00:48:56.314Z,11.90
2022-11-14T00:51:41.717Z,10.90
2022-11-14T00:54:27.104Z,10.63
2022-11-14T00:57:12.407Z,10.00
2022-11-14T00:59:57.816Z,9.53
2022-11-14T01:02:43.111Z,9.97
2022-11-14T01:05:28.451Z,10.70
2022-11-14T01:08:15.083Z,9.00
2022-11-14T01:11:00.574Z,8.33
2022-11-14T01:13:46.288Z,6.47
2022-11-14T01:16:31.452Z,8.30
2022-11-14T01:19:16.825Z,7.47
2022-11-14T01:22:06.214Z,7.43
2022-11-14T01:24:51.752Z,7.07
2022-11-14T01:27:37.075Z,8.27
2022-11-14T01:30:22.551Z,8.90
2022-11-14T01:33:08.155Z,7.53
2022-11-14T01:35:53.807Z,8.00
2022-11-14T01:38:39.352Z,8.67
2022-11-14T01:41:25.193Z,7.20
2022-11-14T01:44:16.873Z,8.43
2022-11-14T01:47:02.285Z,8.70
2022-11-14T01:49:52.664Z,9.70
2022-11-14T01:52:40.566Z,6.97
2022-11-14T01:55:27.406Z,9.43
2022-11-14T01:58:13.437Z,10.70
2022-11-14T02:00:59.426Z,7.97
2022-11-14T02:03:48.205Z,14.13
2022-11-14T02:06:34.403Z,9.47
2022-11-14T02:09:19.511Z,9.53
2022-11-14T02:12:08.749Z,8.03
2022-11-14T02:14:57.016Z,8.83
2022-11-14T02:17:43.970Z,7.73
2022-11-14T02:20:34.024Z,9.53
2022-11-14T02:23:30.253Z,7.50
2022-11-14T02:26:20.240Z,7.23
2022-11-14T02:29:07.467Z,6.07
2022-11-14T02:31:52.759Z,7.03
2022-11-14T02:34:38.697Z,7.10
2022-11-14T02:37:24.029Z,7.20
2022-11-14T02:40:10.240Z,7.90
2022-11-14T02:42:55.580Z,8.30
2022-11-14T02:45:41.229Z,8.60
2022-11-14T02:48:26.684Z,6.67
2022-11-14T02:51:12.047Z,8.17
2022-11-14T02:53:57.650Z,7.73
2022-11-14T02:56:43.091Z,7.40
2022-11-14T02:59:28.619Z,7.23
2022-11-14T03:02:14.249Z,6.47
2022-11-14T03:04:59.312Z,5.43
2022-11-14T03:07:44.888Z,6.53
2022-11-14T03:10:30.352Z,5.87
2022-11-14T03:13:15.834Z,5.20
2022-11-14T03:16:07.380Z,5.50
2022-11-14T03:18:52.957Z,6.27
2022-11-14T03:21:38.140Z,6.17
2022-11-14T03:24:23.545Z,6.07
2022-11-14T03:27:08.921Z,6.10
2022-11-14T03:29:54.400Z,7.17
2022-11-14T03:32:39.844Z,5.17
2022-11-14T03:35:25.068Z,4.57
2022-11-14T03:38:10.464Z,4.53
2022-11-14T03:40:58.853Z,4.63
2022-11-14T03:43:44.096Z,4.03
2022-11-14T03:46:29.705Z,4.47
2022-11-14T03:49:14.860Z,4.43
2022-11-14T03:52:00.277Z,4.63
2022-11-14T03:54:45.725Z,4.67
2022-11-14T03:57:31.005Z,5.10
2022-11-14T04:00:17.292Z,6.40
2022-11-14T04:03:02.819Z,5.63
2022-11-14T04:05:49.408Z,4.50
2022-11-14T04:08:34.873Z,6.97
2022-11-14T04:11:20.504Z,4.47
2022-11-14T04:14:05.893Z,5.13
2022-11-14T04:16:51.283Z,4.47
2022-11-14T04:19:36.760Z,6.03
2022-11-14T04:22:22.160Z,5.17
2022-11-14T04:25:08.926Z,5.37
2022-11-14T04:27:54.393Z,6.23
2022-11-14T04:30:40.073Z,6.87
2022-11-14T04:33:25.284Z,6.80
2022-11-14T04:36:10.599Z,6.37
2022-11-14T04:38:56.807Z,5.37
2022-11-14T04:41:41.873Z,5.23
2022-11-14T04:44:27.440Z,4.00
2022-11-14T04:47:12.833Z,4.57
2022-11-14T04:49:58.316Z,4.90
2022-11-14T04:52:43.635Z,7.03
2022-11-14T04:55:29.151Z,4.40
2022-11-14T04:58:14.452Z,4.67
2022-11-14T05:00:59.895Z,4.13
2022-11-14T05:03:45.093Z,4.73
2022-11-14T05:06:30.483Z,3.57
2022-11-14T05:09:15.792Z,5.47
2022-11-14T05:12:01.440Z,5.27
2022-11-14T05:14:46.729Z,6.00
2022-11-14T05:17:32.051Z,14.50
2022-11-14T05:20:20.165Z,12.63
2022-11-14T05:23:05.665Z,12.23
2022-11-14T05:26:06.716Z,9.17
2022-11-14T05:28:52.157Z,7.20
2022-11-14T05:31:37.505Z,6.47
2022-11-14T05:34:23.215Z,9.00
2022-11-14T05:37:08.622Z,8.83
2022-11-14T05:39:53.941Z,10.07
2022-11-14T05:42:39.353Z,8.77
2022-11-14T05:45:24.869Z,8.57
2022-11-14T05:48:10.817Z,7.93
2022-11-14T05:50:57.998Z,7.63
2022-11-14T05:53:43.377Z,6.57
2022-11-14T05:56:28.892Z,7.03
2022-11-14T05:59:14.249Z,6.43
2022-11-14T06:01:59.809Z,7.17
2022-11-14T06:04:45.055Z,5.73
2022-11-14T06:07:30.757Z,10.30
2022-11-14T06:10:16.293Z,8.93
2022-11-14T06:13:01.943Z,10.77
2022-11-14T06:15:47.079Z,11.77
2022-11-14T06:18:33.722Z,10.60
2022-11-14T06:21:21.640Z,9.30
2022-11-14T06:24:07.134Z,9.27
2022-11-14T06:26:52.270Z,10.20
2022-11-14T06:29:37.944Z,8.23
2022-11-14T06:32:23.341Z,8.53
2022-11-14T06:35:08.835Z,8.63
2022-11-14T06:37:54.411Z,7.40
2022-11-14T06:40:39.920Z,5.97
2022-11-14T06:43:25.242Z,7.20
2022-11-14T06:46:13.012Z,7.47
2022-11-14T06:48:58.109Z,8.67
2022-11-14T06:51:43.524Z,7.90
2022-11-14T06:54:28.759Z,8.37
2022-11-14T06:57:14.417Z,9.17
2022-11-14T07:00:00.431Z,7.40
2022-11-14T07:02:46.648Z,7.97
2022-11-14T07:05:31.740Z,7.63
2022-11-14T07:08:20.864Z,8.10
2022-11-14T07:11:12.096Z,10.13
2022-11-14T07:14:00.074Z,8.77
2022-11-14T07:16:45.276Z,9.33
2022-11-14T07:19:30.551Z,7.83
2022-11-14T07:22:15.893Z,9.63
2022-11-14T07:25:01.548Z,8.93
2022-11-14T07:27:46.896Z,9.70
2022-11-14T07:30:33.847Z,9.10
2022-11-14T07:33:18.905Z,7.27
2022-11-14T07:36:05.133Z,8.13
2022-11-14T07:38:50.312Z,7.33
2022-11-14T07:41:35.772Z,8.17
2022-11-14T07:44:21.303Z,9.60
2022-11-14T07:47:06.771Z,8.00
2022-11-14T07:49:52.234Z,9.40
2022-11-14T07:52:37.802Z,7.70
2022-11-14T07:55:23.772Z,7.90
2022-11-14T07:58:09.398Z,7.57
2022-11-14T08:00:54.755Z,8.53
2022-11-14T08:03:45.392Z,7.27
2022-11-14T08:06:31.665Z,10.07
2022-11-14T08:09:17.060Z,12.27
2022-11-14T08:12:02.485Z,13.73
2022-11-14T08:14:48.047Z,14.43
2022-11-14T08:17:33.356Z,15.33
2022-11-14T08:20:19.063Z,13.50
2022-11-14T08:23:07.060Z,16.27
2022-11-14T08:25:52.681Z,16.07
2022-11-14T08:28:37.939Z,15.60
2022-11-14T08:31:23.382Z,15.33
2022-11-14T08:34:09.892Z,14.13
2022-11-14T08:36:57.090Z,14.40
2022-11-14T08:39:42.306Z,13.73
2022-11-14T08:42:27.602Z,15.23
2022-11-14T08:45:13.196Z,16.67
2022-11-14T08:47:58.760Z,15.77
2022-11-14T08:50:44.128Z,15.27
2022-11-14T08:53:29.475Z,15.43
2022-11-14T08:56:14.939Z,15.63
2022-11-14T08:59:03.930Z,13.50
2022-11-14T09:01:48.938Z,15.47
2022-11-14T09:04:34.512Z,13.10
2022-11-14T09:07:19.845Z,12.90
2022-11-14T09:10:05.903Z,12.90
2022-11-14T09:12:58.604Z,12.90
2022-11-14T09:15:44.320Z,12.60
2022-11-14T09:18:31.242Z,12.60
2022-11-14T09:21:16.777Z,13.13
2022-11-14T09:24:02.360Z,14.60
2022-11-14T09:26:54.979Z,13.77
2022-11-14T09:29:42.034Z,12.00
2022-11-14T09:32:27.430Z,11.17
2022-11-14T09:35:15.046Z,13.27
2022-11-14T09:38:05.952Z,12.83
2022-11-14T09:41:04.108Z,13.30
2022-11-14T09:44:20.528Z,13.23
2022-11-14T09:47:16.614Z,11.50
2022-11-14T09:50:15.708Z,12.43
2022-11-14T09:53:14.711Z,12.33
2022-11-14T09:56:00.137Z,12.67
2022-11-14T09:58:45.784Z,13.83
2022-11-14T10:01:52.851Z,11.73
2022-11-14T10:04:50.809Z,11.47
2022-11-14T10:07:42.451Z,12.80
2022-11-14T10:11:05.937Z,10.80
2022-11-14T10:14:26.723Z,11.77
2022-11-14T10:17:32.827Z,11.47
2022-11-14T10:20:18.627Z,11.23
2022-11-14T10:23:23.190Z,12.13
2022-11-14T10:26:17.800Z,11.40
2022-11-14T10:29:35.004Z,13.63
2022-11-14T10:32:38.701Z,11.80
2022-11-14T10:35:35.118Z,11.63
2022-11-14T10:38:32.450Z,11.90
2022-11-14T10:41:41.795Z,12.23
2022-11-14T10:44:29.682Z,12.10
2022-11-14T10:47:18.700Z,12.50
2022-11-14T10:50:23.552Z,12.27
2022-11-14T10:53:23.707Z,11.83
2022-11-14T10:56:12.939Z,11.87
2022-11-14T10:58:58.685Z,12.33
2022-11-14T11:01:53.954Z,11.93
2022-11-14T11:04:45.087Z,13.23
2022-11-14T11:07:48.435Z,14.00
2022-11-14T11:10:54.096Z,11.70
2022-11-14T11:13:53.884Z,13.20
2022-11-14T11:16:39.172Z,10.50
2022-11-14T11:19:27.385Z,10.33
2022-11-14T11:22:37.363Z,12.10
2022-11-14T11:25:34.130Z,13.07
2022-11-14T11:28:22.000Z,10.97
2022-11-14T11:31:10.402Z,12.07
2022-11-14T11:34:02.764Z,11.27
2022-11-14T11:36:55.380Z,13.83
2022-11-14T11:39:45.495Z,13.30
2022-11-14T11:43:31.882Z,12.17
2022-11-14T11:45:49.882Z,14.03
2022-11-14T11:48:39.059Z,11.60
2022-11-14T11:51:26.883Z,12.77
2022-11-14T11:54:30.311Z,13.17
2022-11-14T11:57:21.664Z,12.20
2022-11-14T12:00:15.668Z,14.40
2022-11-14T12:03:01.774Z,14.63
2022-11-14T12:06:16.862Z,12.27
2022-11-14T12:09:17.633Z,13.50
2022-11-14T12:12:10.980Z,12.43
2022-11-14T12:15:08.111Z,14.60
2022-11-14T12:18:06.636Z,11.83
2022-11-14T12:21:14.514Z,14.13
2022-11-14T12:24:20.711Z,13.20
2022-11-14T12:27:25.585Z,12.63
2022-11-14T12:30:18.235Z,13.93
2022-11-14T12:33:10.567Z,13.63
2022-11-14T12:36:00.581Z,12.13
2022-11-14T12:38:52.710Z,14.17
2022-11-14T12:41:39.951Z,14.37
2022-11-14T12:44:28.453Z,10.90
2022-11-14T12:47:23.815Z,11.90
2022-11-14T12:50:38.685Z,13.03
2022-11-14T12:53:40.454Z,11.33
2022-11-14T12:56:31.658Z,11.17
2022-11-14T12:59:50.014Z,11.50
2022-11-14T13:03:11.195Z,10.83
2022-11-14T13:06:17.395Z,11.90
2022-11-14T13:09:53.077Z,9.67
2022-11-14T13:12:58.127Z,9.97
2022-11-14T13:16:13.169Z,10.80
2022-11-14T13:19:29.460Z,10.70
2022-11-14T13:22:14.761Z,12.90
2022-11-14T13:25:00.452Z,10.37
2022-11-14T13:28:07.178Z,10.77
2022-11-14T13:31:17.259Z,12.17
2022-11-14T13:34:29.304Z,11.93
2022-11-14T13:37:40.126Z,8.97
2022-11-14T13:40:33.938Z,11.53
2022-11-14T13:44:01.486Z,9.97
2022-11-14T13:47:40.341Z,9.17
2022-11-14T13:50:31.526Z,8.07
2022-11-14T13:53:23.816Z,9.57
2022-11-14T13:56:50.817Z,9.97
2022-11-14T13:59:46.758Z,9.47
2022-11-14T14:02:59.186Z,9.37
2022-11-14T14:06:19.763Z,9.30
2022-11-14T14:09:21.890Z,8.80
2022-11-14T14:12:37.783Z,10.03
2022-11-14T14:15:31.805Z,10.03
2022-11-14T14:18:35.266Z,9.43
2022-11-14T14:21:23.026Z,8.90
2022-11-14T14:24:39.838Z,9.50
2022-11-14T14:27:37.140Z,7.90
2022-11-14T14:30:22.244Z,8.93
2022-11-14T14:33:07.784Z,10.43
2022-11-14T14:35:53.980Z,9.97
2022-11-14T14:38:39.311Z,10.50
2022-11-14T14:41:26.038Z,10.43
2022-11-14T14:44:22.177Z,11.37
2022-11-14T14:47:32.483Z,11.17
2022-11-14T14:50:22.080Z,8.90
2022-11-14T14:53:18.788Z,9.47
2022-11-14T14:56:26.518Z,7.87
2022-11-14T14:59:21.322Z,10.37
2022-11-14T15:02:20.101Z,11.80
2022-11-14T15:05:06.016Z,8.57
2022-11-14T15:07:55.100Z,8.70
2022-11-14T15:10:41.704Z,9.53
2022-11-14T15:13:28.974Z,8.40
2022-11-14T15:16:15.229Z,8.97
2022-11-14T15:19:01.548Z,9.40
2022-11-14T15:22:10.754Z,8.87
2022-11-14T15:25:11.837Z,9.27
2022-11-14T15:28:00.805Z,7.67
2022-11-14T15:31:01.356Z,9.13
2022-11-14T15:34:00.595Z,8.83
2022-11-14T15:37:06.648Z,6.97
2022-11-14T15:39:52.090Z,8.23
2022-11-14T15:42:38.005Z,8.77
2022-11-14T15:45:29.316Z,10.00
2022-11-14T15:48:18.084Z,8.90
2022-11-14T15:51:03.461Z,8.07
2022-11-14T15:53:50.129Z,10.97
2022-11-14T15:56:35.599Z,7.77
2022-11-14T15:59:21.114Z,8.90
2022-11-14T16:02:17.564Z,10.47
2022-11-14T16:05:04.152Z,10.73
2022-11-14T16:07:49.471Z,10.57
2022-11-14T16:10:35.101Z,15.73
2022-11-14T16:13:20.620Z,15.60
2022-11-14T16:16:06.148Z,13.17
2022-11-14T16:18:52.481Z,11.73
2022-11-14T16:21:37.811Z,10.17
2022-11-14T16:24:23.963Z,11.37
2022-11-14T16:27:09.590Z,9.07
2022-11-14T16:29:56.087Z,10.20
2022-11-14T16:32:46.208Z,8.03
2022-11-14T16:35:31.579Z,7.27
2022-11-14T16:38:16.923Z,9.60
2022-11-14T16:41:05.834Z,8.33
2022-11-14T16:43:54.995Z,6.73
2022-11-14T16:46:40.523Z,6.73
2022-11-14T16:49:25.955Z,6.63
2022-11-14T16:52:11.595Z,7.37
2022-11-14T16:54:56.569Z,5.80
2022-11-14T16:57:42.288Z,6.97
2022-11-14T17:00:27.685Z,7.80
2022-11-14T17:03:13.291Z,6.00
2022-11-14T17:05:58.409Z,6.73
2022-11-14T17:08:43.813Z,6.13
2022-11-14T17:11:29.300Z,6.10
2022-11-14T17:14:14.960Z,7.43
2022-11-14T17:17:03.092Z,5.97
2022-11-14T17:19:49.276Z,6.50
2022-11-14T17:22:34.462Z,7.57
2022-11-14T17:25:19.846Z,8.50
2022-11-14T17:28:05.387Z,7.70
2022-11-14T17:30:50.778Z,5.97
2022-11-14T17:33:37.673Z,8.83
2022-11-14T17:36:24.000Z,7.63
2022-11-14T17:39:09.177Z,7.27
2022-11-14T17:41:54.444Z,7.17
2022-11-14T17:44:39.888Z,6.43
2022-11-14T17:47:25.408Z,7.50
2022-11-14T17:50:11.068Z,8.53
2022-11-14T17:52:56.441Z,6.67
2022-11-14T17:55:42.087Z,6.57
2022-11-14T17:58:29.360Z,6.57
2022-11-14T18:01:17.908Z,7.30
2022-11-14T18:04:06.180Z,6.80
2022-11-14T18:06:52.888Z,7.20
2022-11-14T18:09:38.926Z,5.83
2022-11-14T18:12:24.224Z,10.07
2022-11-14T18:15:10.063Z,7.97
2022-11-14T18:17:55.139Z,6.97
2022-11-14T18:20:40.874Z,7.60
2022-11-14T18:23:26.232Z,7.23
2022-11-14T18:26:13.373Z,7.30
2022-11-14T18:29:03.729Z,6.77
2022-11-14T18:31:48.849Z,6.90
2022-11-14T18:34:36.998Z,6.13
2022-11-14T18:37:22.973Z,6.23
2022-11-14T18:40:14.767Z,8.07
2022-11-14T18:43:01.272Z,7.47
2022-11-14T18:45:46.712Z,6.93
2022-11-14T18:48:31.904Z,7.50
2022-11-14T18:51:22.965Z,6.33
2022-11-14T18:54:13.301Z,7.27
2022-11-14T18:56:58.495Z,5.30
2022-11-14T18:59:43.926Z,5.90
2022-11-14T19:02:29.231Z,6.13
2022-11-14T19:05:14.584Z,5.20
2022-11-14T19:07:59.910Z,5.27
2022-11-14T19:10:45.402Z,4.10
2022-11-14T19:13:31.225Z,6.27
2022-11-14T19:16:16.878Z,5.03
2022-11-14T19:19:02.681Z,5.10
2022-11-14T19:21:51.022Z,5.50
2022-11-14T19:24:36.296Z,5.43
2022-11-14T19:27:22.070Z,4.60
2022-11-14T19:30:08.046Z,5.33
2022-11-14T19:32:53.494Z,5.20
2022-11-14T19:35:39.348Z,5.20
2022-11-14T19:38:24.899Z,4.80
2022-11-14T19:41:22.106Z,5.27
2022-11-14T19:44:07.421Z,6.30
2022-11-14T19:46:52.681Z,4.30
2022-11-14T19:49:38.418Z,5.17
2022-11-14T19:52:23.608Z,6.10
2022-11-14T19:55:09.164Z,5.07
2022-11-14T19:57:54.468Z,5.30
2022-11-14T20:00:39.756Z,5.60
2022-11-14T20:03:25.296Z,5.50
2022-11-14T20:06:23.378Z,4.63
2022-11-14T20:09:10.588Z,5.50
2022-11-14T20:11:55.784Z,5.77
2022-11-14T20:14:41.397Z,5.83
2022-11-14T20:17:26.671Z,5.80
2022-11-14T20:20:12.312Z,5.50
2022-11-14T20:22:57.422Z,6.20
2022-11-14T20:25:43.094Z,9.37
2022-11-14T20:28:28.726Z,5.07
2022-11-14T20:31:23.841Z,6.33
2022-11-14T20:34:10.471Z,8.40
2022-11-14T20:37:10.472Z,7.67
2022-11-14T20:39:56.423Z,4.53
2022-11-14T20:42:41.846Z,6.03
2022-11-14T20:45:27.981Z,5.27
2022-11-14T20:48:13.213Z,6.93
2022-11-14T20:51:12.544Z,5.23
2022-11-14T20:53:57.704Z,6.40
2022-11-14T20:56:43.461Z,5.60
2022-11-14T20:59:28.647Z,5.57
2022-11-14T21:02:15.834Z,6.50
2022-11-14T21:05:01.652Z,6.80
2022-11-14T21:07:46.724Z,6.37
2022-11-14T21:10:46.363Z,7.40
2022-11-14T21:13:53.503Z,5.57
2022-11-14T21:16:40.078Z,7.70
2022-11-14T21:19:25.902Z,5.13
2022-11-14T21:22:11.035Z,6.20
2022-11-14T21:24:56.364Z,8.00
2022-11-14T21:27:41.901Z,6.90
2022-11-14T21:30:31.340Z,8.20
2022-11-14T21:33:16.718Z,7.93
2022-11-14T21:36:22.872Z,5.87
2022-11-14T21:39:14.337Z,7.20
2022-11-14T21:41:59.616Z,8.13
2022-11-14T21:44:45.288Z,5.93
2022-11-14T21:47:30.819Z,5.70
2022-11-14T21:50:16.502Z,5.23
2022-11-14T21:53:02.592Z,6.47
2022-11-14T21:55:48.169Z,6.00
2022-11-14T21:58:33.442Z,6.53
2022-11-14T22:01:39.846Z,6.50
2022-11-14T22:04:25.659Z,6.97
2022-11-14T22:07:10.988Z,5.70
2022-11-14T22:09:56.410Z,7.40
2022-11-14T22:12:41.816Z,7.10
2022-11-14T22:15:27.120Z,8.10
2022-11-14T22:18:12.606Z,6.17
2022-11-14T22:20:59.664Z,7.10
2022-11-14T22:23:45.419Z,6.40
2022-11-14T22:26:30.777Z,6.20
2022-11-14T22:29:16.185Z,6.23
2022-11-14T22:32:01.638Z,5.70
2022-11-14T22:34:47.014Z,7.47
2022-11-14T22:37:32.883Z,7.20
2022-11-14T22:40:18.067Z,6.43
2022-11-14T22:43:03.322Z,5.77
2022-11-14T22:45:52.973Z,7.23
2022-11-14T22:48:38.477Z,6.37
2022-11-14T22:51:25.859Z,6.50
2022-11-14T22:54:11.459Z,7.53
2022-11-14T22:56:56.662Z,5.70
2022-11-14T22:59:42.169Z,6.83
2022-11-14T23:02:27.593Z,6.37
2022-11-14T23:05:13.130Z,6.80
2022-11-14T23:07:58.357Z,6.47
2022-11-14T23:10:44.302Z,5.57
2022-11-14T23:13:29.697Z,6.10
2022-11-14T23:16:17.771Z,6.27
2022-11-14T23:19:04.838Z,8.77
2022-11-14T23:21:49.937Z,6.53
2022-11-14T23:24:35.388Z,7.80
2022-11-14T23:27:20.687Z,9.07
2022-11-14T23:30:06.621Z,7.83
2022-11-14T23:32:52.555Z,9.63
2022-11-14T23:35:39.930Z,10.27
2022-11-14T23:38:25.695Z,9.37
2022-11-14T23:41:23.024Z,11.20
2022-11-14T23:44:08.638Z,10.10
2022-11-14T23:46:54.062Z,8.40
2022-11-14T23:49:39.667Z,8.03
2022-11-14T23:52:25.023Z,7.67
2022-11-14T23:55:10.522Z,7.40
2022-11-14T23:57:55.852Z,5.67
